sensor_id;sensor_type;location;lat;lon;timestamp;P1;durP1;ratioP1;P2;durP2;ratioP2
63259;SDS011;49390;51.380;0.098;2023-07-13T00:01:15;6.43;;;2.80;;
63259;SDS011;49390;51.380;0.098;2023-07-13T00:03:44;7.13;;;2.95;;
63259;SDS011;49390;51.380;0.098;2023-07-13T00:06:12;6.80;;;2.28;;
63259;SDS011;49390;51.380;0.098;2023-07-13T00:08:42;7.20;;;2.65;;
63259;SDS011;49390;51.380;0.098;2023-07-13T00:11:11;8.25;;;3.67;;
63259;SDS011;49390;51.380;0.098;2023-07-13T00:13:39;5.95;;;2.50;;
63259;SDS011;49390;51.380;0.098;2023-07-13T00:16:08;5.93;;;2.20;;
63259;SDS011;49390;51.380;0.098;2023-07-13T00:18:38;5.13;;;2.40;;
63259;SDS011;49390;51.380;0.098;2023-07-13T00:21:06;6.82;;;2.80;;
63259;SDS011;49390;51.380;0.098;2023-07-13T00:23:35;7.30;;;2.83;;
63259;SDS011;49390;51.380;0.098;2023-07-13T00:26:47;7.97;;;3.15;;
63259;SDS011;49390;51.380;0.098;2023-07-13T00:29:39;5.80;;;2.60;;
63259;SDS011;49390;51.380;0.098;2023-07-13T00:32:08;8.23;;;3.00;;
63259;SDS011;49390;51.380;0.098;2023-07-13T00:34:37;5.43;;;2.50;;
63259;SDS011;49390;51.380;0.098;2023-07-13T00:37:05;5.43;;;2.40;;
63259;SDS011;49390;51.380;0.098;2023-07-13T00:39:35;7.60;;;2.60;;
63259;SDS011;49390;51.380;0.098;2023-07-13T00:42:03;8.15;;;2.97;;
63259;SDS011;49390;51.380;0.098;2023-07-13T00:44:31;10.25;;;3.00;;
63259;SDS011;49390;51.380;0.098;2023-07-13T00:47:00;7.43;;;2.75;;
63259;SDS011;49390;51.380;0.098;2023-07-13T00:49:29;6.38;;;2.70;;
63259;SDS011;49390;51.380;0.098;2023-07-13T00:51:59;7.57;;;2.90;;
63259;SDS011;49390;51.380;0.098;2023-07-13T00:54:42;4.40;;;2.67;;
63259;SDS011;49390;51.380;0.098;2023-07-13T00:57:15;7.80;;;2.78;;
63259;SDS011;49390;51.380;0.098;2023-07-13T00:59:52;7.03;;;2.95;;
63259;SDS011;49390;51.380;0.098;2023-07-13T01:02:25;6.05;;;2.70;;
63259;SDS011;49390;51.380;0.098;2023-07-13T01:04:56;7.95;;;2.90;;
63259;SDS011;49390;51.380;0.098;2023-07-13T01:07:25;5.68;;;2.60;;
63259;SDS011;49390;51.380;0.098;2023-07-13T01:09:53;7.40;;;2.78;;
63259;SDS011;49390;51.380;0.098;2023-07-13T01:12:21;6.72;;;2.85;;
63259;SDS011;49390;51.380;0.098;2023-07-13T01:14:56;6.10;;;3.05;;
63259;SDS011;49390;51.380;0.098;2023-07-13T01:17:25;7.78;;;3.10;;
63259;SDS011;49390;51.380;0.098;2023-07-13T01:19:54;5.97;;;2.40;;
63259;SDS011;49390;51.380;0.098;2023-07-13T01:22:23;7.22;;;3.20;;
63259;SDS011;49390;51.380;0.098;2023-07-13T01:24:54;5.28;;;2.83;;
63259;SDS011;49390;51.380;0.098;2023-07-13T01:27:23;8.98;;;2.90;;
63259;SDS011;49390;51.380;0.098;2023-07-13T01:29:53;8.35;;;2.90;;
63259;SDS011;49390;51.380;0.098;2023-07-13T01:32:35;5.22;;;2.63;;
63259;SDS011;49390;51.380;0.098;2023-07-13T01:35:04;6.72;;;3.05;;
63259;SDS011;49390;51.380;0.098;2023-07-13T01:37:32;6.20;;;3.10;;
63259;SDS011;49390;51.380;0.098;2023-07-13T01:40:00;7.57;;;3.00;;
63259;SDS011;49390;51.380;0.098;2023-07-13T01:42:30;4.93;;;2.85;;
63259;SDS011;49390;51.380;0.098;2023-07-13T01:44:58;7.32;;;2.85;;
63259;SDS011;49390;51.380;0.098;2023-07-13T01:47:27;8.95;;;2.70;;
63259;SDS011;49390;51.380;0.098;2023-07-13T01:49:56;8.10;;;2.85;;
63259;SDS011;49390;51.380;0.098;2023-07-13T01:52:25;5.63;;;2.90;;
63259;SDS011;49390;51.380;0.098;2023-07-13T01:54:53;8.75;;;2.80;;
63259;SDS011;49390;51.380;0.098;2023-07-13T01:59:44;6.57;;;2.88;;
63259;SDS011;49390;51.380;0.098;2023-07-13T02:02:13;6.75;;;2.85;;
63259;SDS011;49390;51.380;0.098;2023-07-13T02:04:41;6.68;;;3.10;;
63259;SDS011;49390;51.380;0.098;2023-07-13T02:07:09;6.45;;;2.85;;
63259;SDS011;49390;51.380;0.098;2023-07-13T02:09:37;5.93;;;3.30;;
63259;SDS011;49390;51.380;0.098;2023-07-13T02:12:05;6.50;;;2.83;;
63259;SDS011;49390;51.380;0.098;2023-07-13T02:14:34;7.53;;;3.05;;
63259;SDS011;49390;51.380;0.098;2023-07-13T02:17:02;5.60;;;2.58;;
63259;SDS011;49390;51.380;0.098;2023-07-13T02:19:31;6.80;;;3.08;;
63259;SDS011;49390;51.380;0.098;2023-07-13T02:21:59;6.32;;;2.58;;
63259;SDS011;49390;51.380;0.098;2023-07-13T02:24:27;6.13;;;2.85;;
63259;SDS011;49390;51.380;0.098;2023-07-13T02:26:55;7.13;;;2.75;;
63259;SDS011;49390;51.380;0.098;2023-07-13T02:29:23;8.43;;;2.67;;
63259;SDS011;49390;51.380;0.098;2023-07-13T02:31:51;7.47;;;2.85;;
63259;SDS011;49390;51.380;0.098;2023-07-13T02:34:19;5.40;;;2.50;;
63259;SDS011;49390;51.380;0.098;2023-07-13T02:36:47;9.85;;;3.00;;
63259;SDS011;49390;51.380;0.098;2023-07-13T02:39:15;7.13;;;2.75;;
63259;SDS011;49390;51.380;0.098;2023-07-13T02:41:43;6.82;;;2.60;;
63259;SDS011;49390;51.380;0.098;2023-07-13T02:44:14;6.13;;;2.55;;
63259;SDS011;49390;51.380;0.098;2023-07-13T02:46:42;7.25;;;2.83;;
63259;SDS011;49390;51.380;0.098;2023-07-13T02:49:11;6.07;;;2.53;;
63259;SDS011;49390;51.380;0.098;2023-07-13T02:51:39;5.82;;;2.60;;
63259;SDS011;49390;51.380;0.098;2023-07-13T02:54:08;5.78;;;2.63;;
63259;SDS011;49390;51.380;0.098;2023-07-13T02:56:37;6.93;;;2.95;;
63259;SDS011;49390;51.380;0.098;2023-07-13T02:59:06;6.05;;;2.70;;
63259;SDS011;49390;51.380;0.098;2023-07-13T03:01:34;7.15;;;2.58;;
63259;SDS011;49390;51.380;0.098;2023-07-13T03:04:02;6.95;;;2.65;;
63259;SDS011;49390;51.380;0.098;2023-07-13T03:06:34;6.38;;;2.90;;
63259;SDS011;49390;51.380;0.098;2023-07-13T03:09:03;5.53;;;2.67;;
63259;SDS011;49390;51.380;0.098;2023-07-13T03:11:35;6.97;;;2.60;;
63259;SDS011;49390;51.380;0.098;2023-07-13T03:14:19;6.43;;;2.60;;
63259;SDS011;49390;51.380;0.098;2023-07-13T03:16:48;6.82;;;2.70;;
63259;SDS011;49390;51.380;0.098;2023-07-13T03:19:16;5.63;;;2.65;;
63259;SDS011;49390;51.380;0.098;2023-07-13T03:21:48;5.13;;;2.45;;
63259;SDS011;49390;51.380;0.098;2023-07-13T03:24:16;8.88;;;3.45;;
63259;SDS011;49390;51.380;0.098;2023-07-13T03:26:44;4.45;;;2.30;;
63259;SDS011;49390;51.380;0.098;2023-07-13T03:29:12;4.50;;;2.70;;
63259;SDS011;49390;51.380;0.098;2023-07-13T03:31:40;6.82;;;2.60;;
63259;SDS011;49390;51.380;0.098;2023-07-13T03:34:08;6.40;;;2.70;;
63259;SDS011;49390;51.380;0.098;2023-07-13T03:36:37;7.07;;;3.03;;
63259;SDS011;49390;51.380;0.098;2023-07-13T03:41:46;7.50;;;2.80;;
63259;SDS011;49390;51.380;0.098;2023-07-13T03:44:18;7.47;;;3.00;;
63259;SDS011;49390;51.380;0.098;2023-07-13T03:46:50;5.10;;;2.47;;
63259;SDS011;49390;51.380;0.098;2023-07-13T03:49:18;9.05;;;2.72;;
63259;SDS011;49390;51.380;0.098;2023-07-13T03:51:46;6.57;;;2.70;;
63259;SDS011;49390;51.380;0.098;2023-07-13T03:54:17;6.47;;;2.72;;
63259;SDS011;49390;51.380;0.098;2023-07-13T03:56:46;5.32;;;2.50;;
63259;SDS011;49390;51.380;0.098;2023-07-13T03:59:15;5.28;;;2.67;;
63259;SDS011;49390;51.380;0.098;2023-07-13T04:01:45;7.78;;;2.70;;
63259;SDS011;49390;51.380;0.098;2023-07-13T04:04:13;5.93;;;2.60;;
63259;SDS011;49390;51.380;0.098;2023-07-13T04:06:41;6.03;;;2.70;;
63259;SDS011;49390;51.380;0.098;2023-07-13T04:09:11;6.43;;;2.85;;
63259;SDS011;49390;51.380;0.098;2023-07-13T04:11:39;5.53;;;2.65;;
63259;SDS011;49390;51.380;0.098;2023-07-13T04:14:07;7.88;;;3.13;;
63259;SDS011;49390;51.380;0.098;2023-07-13T04:16:35;6.78;;;2.50;;
63259;SDS011;49390;51.380;0.098;2023-07-13T04:19:03;7.03;;;2.92;;
63259;SDS011;49390;51.380;0.098;2023-07-13T04:21:32;5.78;;;2.53;;
63259;SDS011;49390;51.380;0.098;2023-07-13T04:23:59;5.25;;;2.70;;
63259;SDS011;49390;51.380;0.098;2023-07-13T04:26:27;6.55;;;2.78;;
63259;SDS011;49390;51.380;0.098;2023-07-13T04:28:56;5.28;;;2.50;;
63259;SDS011;49390;51.380;0.098;2023-07-13T04:31:25;6.70;;;2.58;;
63259;SDS011;49390;51.380;0.098;2023-07-13T04:33:53;8.05;;;2.92;;
63259;SDS011;49390;51.380;0.098;2023-07-13T04:36:21;7.38;;;3.20;;
63259;SDS011;49390;51.380;0.098;2023-07-13T04:38:49;6.57;;;2.67;;
63259;SDS011;49390;51.380;0.098;2023-07-13T04:41:17;6.93;;;2.50;;
63259;SDS011;49390;51.380;0.098;2023-07-13T04:43:45;6.35;;;2.63;;
63259;SDS011;49390;51.380;0.098;2023-07-13T04:46:15;6.47;;;2.50;;
63259;SDS011;49390;51.380;0.098;2023-07-13T04:51:13;5.35;;;2.70;;
63259;SDS011;49390;51.380;0.098;2023-07-13T04:53:41;7.88;;;2.50;;
63259;SDS011;49390;51.380;0.098;2023-07-13T04:56:09;5.72;;;2.83;;
63259;SDS011;49390;51.380;0.098;2023-07-13T04:58:37;6.40;;;2.53;;
63259;SDS011;49390;51.380;0.098;2023-07-13T05:01:07;5.38;;;2.50;;
63259;SDS011;49390;51.380;0.098;2023-07-13T05:03:37;7.07;;;2.90;;
63259;SDS011;49390;51.380;0.098;2023-07-13T05:06:06;5.55;;;2.45;;
63259;SDS011;49390;51.380;0.098;2023-07-13T05:08:38;6.68;;;2.90;;
63259;SDS011;49390;51.380;0.098;2023-07-13T05:11:06;5.47;;;2.60;;
63259;SDS011;49390;51.380;0.098;2023-07-13T05:13:35;5.68;;;2.53;;
63259;SDS011;49390;51.380;0.098;2023-07-13T05:16:04;6.20;;;2.67;;
63259;SDS011;49390;51.380;0.098;2023-07-13T05:18:35;5.63;;;2.53;;
63259;SDS011;49390;51.380;0.098;2023-07-13T05:21:08;6.07;;;2.75;;
63259;SDS011;49390;51.380;0.098;2023-07-13T05:23:38;5.13;;;2.63;;
63259;SDS011;49390;51.380;0.098;2023-07-13T05:26:09;6.03;;;2.55;;
63259;SDS011;49390;51.380;0.098;2023-07-13T05:28:37;4.60;;;2.40;;
63259;SDS011;49390;51.380;0.098;2023-07-13T05:31:09;5.53;;;2.70;;
63259;SDS011;49390;51.380;0.098;2023-07-13T05:33:38;6.28;;;2.70;;
63259;SDS011;49390;51.380;0.098;2023-07-13T05:36:07;7.07;;;2.85;;
63259;SDS011;49390;51.380;0.098;2023-07-13T05:38:35;5.03;;;2.55;;
63259;SDS011;49390;51.380;0.098;2023-07-13T05:41:03;4.90;;;2.83;;
63259;SDS011;49390;51.380;0.098;2023-07-13T05:43:32;4.70;;;2.50;;
63259;SDS011;49390;51.380;0.098;2023-07-13T05:46:01;6.32;;;2.85;;
63259;SDS011;49390;51.380;0.098;2023-07-13T05:48:30;6.45;;;2.70;;
63259;SDS011;49390;51.380;0.098;2023-07-13T05:50:58;4.82;;;2.40;;
63259;SDS011;49390;51.380;0.098;2023-07-13T05:53:28;6.20;;;2.93;;
63259;SDS011;49390;51.380;0.098;2023-07-13T05:55:56;5.95;;;2.55;;
63259;SDS011;49390;51.380;0.098;2023-07-13T05:58:28;5.43;;;2.53;;
63259;SDS011;49390;51.380;0.098;2023-07-13T06:01:00;7.15;;;2.60;;
63259;SDS011;49390;51.380;0.098;2023-07-13T06:03:30;5.85;;;2.42;;
63259;SDS011;49390;51.380;0.098;2023-07-13T06:05:59;5.10;;;2.35;;
63259;SDS011;49390;51.380;0.098;2023-07-13T06:08:27;5.70;;;2.47;;
63259;SDS011;49390;51.380;0.098;2023-07-13T06:11:01;6.28;;;2.60;;
63259;SDS011;49390;51.380;0.098;2023-07-13T06:13:30;7.00;;;2.47;;
63259;SDS011;49390;51.380;0.098;2023-07-13T06:16:02;5.22;;;2.70;;
63259;SDS011;49390;51.380;0.098;2023-07-13T06:18:32;9.05;;;3.15;;
63259;SDS011;49390;51.380;0.098;2023-07-13T06:21:23;9.75;;;2.80;;
63259;SDS011;49390;51.380;0.098;2023-07-13T06:23:50;6.68;;;2.65;;
63259;SDS011;49390;51.380;0.098;2023-07-13T06:26:23;8.57;;;2.80;;
63259;SDS011;49390;51.380;0.098;2023-07-13T06:28:50;6.22;;;2.47;;
63259;SDS011;49390;51.380;0.098;2023-07-13T06:31:18;5.13;;;2.35;;
63259;SDS011;49390;51.380;0.098;2023-07-13T06:33:46;5.28;;;2.38;;
63259;SDS011;49390;51.380;0.098;2023-07-13T06:36:14;5.85;;;2.40;;
63259;SDS011;49390;51.380;0.098;2023-07-13T06:38:42;4.68;;;2.45;;
63259;SDS011;49390;51.380;0.098;2023-07-13T06:41:11;5.38;;;2.65;;
63259;SDS011;49390;51.380;0.098;2023-07-13T06:43:39;9.02;;;2.67;;
63259;SDS011;49390;51.380;0.098;2023-07-13T06:46:08;5.70;;;2.58;;
63259;SDS011;49390;51.380;0.098;2023-07-13T06:48:36;6.40;;;2.28;;
63259;SDS011;49390;51.380;0.098;2023-07-13T06:51:07;6.32;;;2.30;;
63259;SDS011;49390;51.380;0.098;2023-07-13T06:53:36;4.15;;;2.22;;
63259;SDS011;49390;51.380;0.098;2023-07-13T06:56:06;4.28;;;2.20;;
63259;SDS011;49390;51.380;0.098;2023-07-13T06:58:34;4.72;;;2.40;;
63259;SDS011;49390;51.380;0.098;2023-07-13T07:01:03;5.25;;;2.13;;
63259;SDS011;49390;51.380;0.098;2023-07-13T07:03:34;3.80;;;2.03;;
63259;SDS011;49390;51.380;0.098;2023-07-13T07:06:06;4.20;;;2.20;;
63259;SDS011;49390;51.380;0.098;2023-07-13T07:08:44;6.68;;;2.28;;
63259;SDS011;49390;51.380;0.098;2023-07-13T07:11:16;4.28;;;2.10;;
63259;SDS011;49390;51.380;0.098;2023-07-13T07:13:45;3.85;;;2.13;;
63259;SDS011;49390;51.380;0.098;2023-07-13T07:16:13;4.78;;;2.17;;
63259;SDS011;49390;51.380;0.098;2023-07-13T07:18:42;5.20;;;2.10;;
63259;SDS011;49390;51.380;0.098;2023-07-13T07:21:10;4.18;;;2.00;;
63259;SDS011;49390;51.380;0.098;2023-07-13T07:23:39;5.30;;;2.20;;
63259;SDS011;49390;51.380;0.098;2023-07-13T07:26:07;3.63;;;2.25;;
63259;SDS011;49390;51.380;0.098;2023-07-13T07:28:37;4.45;;;2.10;;
63259;SDS011;49390;51.380;0.098;2023-07-13T07:31:09;4.45;;;2.38;;
63259;SDS011;49390;51.380;0.098;2023-07-13T07:36:08;3.85;;;2.30;;
63259;SDS011;49390;51.380;0.098;2023-07-13T07:38:39;6.38;;;2.30;;
63259;SDS011;49390;51.380;0.098;2023-07-13T07:41:07;4.68;;;2.28;;
63259;SDS011;49390;51.380;0.098;2023-07-13T07:43:38;5.72;;;2.45;;
63259;SDS011;49390;51.380;0.098;2023-07-13T07:46:06;6.65;;;2.25;;
63259;SDS011;49390;51.380;0.098;2023-07-13T07:48:34;5.47;;;2.13;;
63259;SDS011;49390;51.380;0.098;2023-07-13T07:51:02;4.28;;;2.05;;
63259;SDS011;49390;51.380;0.098;2023-07-13T07:53:32;4.53;;;2.00;;
63259;SDS011;49390;51.380;0.098;2023-07-13T07:56:01;5.90;;;2.20;;
63259;SDS011;49390;51.380;0.098;2023-07-13T07:58:48;5.13;;;1.77;;
63259;SDS011;49390;51.380;0.098;2023-07-13T08:01:22;4.53;;;2.00;;
63259;SDS011;49390;51.380;0.098;2023-07-13T08:03:53;3.42;;;1.90;;
63259;SDS011;49390;51.380;0.098;2023-07-13T08:06:25;5.32;;;2.05;;
63259;SDS011;49390;51.380;0.098;2023-07-13T08:11:24;5.18;;;2.22;;
63259;SDS011;49390;51.380;0.098;2023-07-13T08:13:55;5.20;;;2.10;;
63259;SDS011;49390;51.380;0.098;2023-07-13T08:16:23;7.60;;;2.10;;
63259;SDS011;49390;51.380;0.098;2023-07-13T08:18:51;5.50;;;2.10;;
63259;SDS011;49390;51.380;0.098;2023-07-13T08:21:20;5.28;;;2.05;;
63259;SDS011;49390;51.380;0.098;2023-07-13T08:23:48;4.15;;;2.38;;
63259;SDS011;49390;51.380;0.098;2023-07-13T08:26:16;4.55;;;2.00;;
63259;SDS011;49390;51.380;0.098;2023-07-13T08:28:44;5.35;;;2.30;;
63259;SDS011;49390;51.380;0.098;2023-07-13T08:31:13;4.93;;;2.25;;
63259;SDS011;49390;51.380;0.098;2023-07-13T08:33:45;4.72;;;2.00;;
63259;SDS011;49390;51.380;0.098;2023-07-13T08:36:13;7.00;;;2.10;;
63259;SDS011;49390;51.380;0.098;2023-07-13T08:38:41;5.53;;;2.00;;
63259;SDS011;49390;51.380;0.098;2023-07-13T08:41:14;4.57;;;2.00;;
63259;SDS011;49390;51.380;0.098;2023-07-13T08:43:46;4.78;;;2.25;;
63259;SDS011;49390;51.380;0.098;2023-07-13T08:46:28;5.03;;;2.03;;
63259;SDS011;49390;51.380;0.098;2023-07-13T08:49:05;6.00;;;2.25;;
63259;SDS011;49390;51.380;0.098;2023-07-13T08:51:43;4.15;;;2.10;;
63259;SDS011;49390;51.380;0.098;2023-07-13T08:54:26;6.18;;;2.20;;
63259;SDS011;49390;51.380;0.098;2023-07-13T08:57:00;5.22;;;2.30;;
63259;SDS011;49390;51.380;0.098;2023-07-13T08:59:49;4.53;;;2.30;;
63259;SDS011;49390;51.380;0.098;2023-07-13T09:08:05;6.30;;;2.35;;
63259;SDS011;49390;51.380;0.098;2023-07-13T09:13:22;6.28;;;2.28;;
63259;SDS011;49390;51.380;0.098;2023-07-13T09:16:04;5.80;;;2.25;;
63259;SDS011;49390;51.380;0.098;2023-07-13T09:18:35;6.85;;;2.78;;
63259;SDS011;49390;51.380;0.098;2023-07-13T09:21:10;5.82;;;2.70;;
63259;SDS011;49390;51.380;0.098;2023-07-13T09:23:44;6.22;;;2.72;;
63259;SDS011;49390;51.380;0.098;2023-07-13T09:26:14;4.68;;;2.22;;
63259;SDS011;49390;51.380;0.098;2023-07-13T09:28:50;6.03;;;2.30;;
63259;SDS011;49390;51.380;0.098;2023-07-13T09:34:13;4.25;;;2.40;;
63259;SDS011;49390;51.380;0.098;2023-07-13T09:36:41;5.25;;;2.05;;
63259;SDS011;49390;51.380;0.098;2023-07-13T09:39:26;4.65;;;1.95;;
63259;SDS011;49390;51.380;0.098;2023-07-13T09:42:01;5.40;;;2.33;;
63259;SDS011;49390;51.380;0.098;2023-07-13T09:44:35;5.65;;;2.30;;
63259;SDS011;49390;51.380;0.098;2023-07-13T09:47:19;4.05;;;2.30;;
63259;SDS011;49390;51.380;0.098;2023-07-13T09:49:58;2.97;;;2.10;;
63259;SDS011;49390;51.380;0.098;2023-07-13T09:55:47;3.38;;;2.00;;
63259;SDS011;49390;51.380;0.098;2023-07-13T09:58:13;5.93;;;2.10;;
63259;SDS011;49390;51.380;0.098;2023-07-13T10:00:57;3.85;;;2.03;;
63259;SDS011;49390;51.380;0.098;2023-07-13T10:03:29;5.25;;;1.90;;
63259;SDS011;49390;51.380;0.098;2023-07-13T10:06:16;2.70;;;1.73;;
63259;SDS011;49390;51.380;0.098;2023-07-13T10:08:46;4.25;;;2.00;;
63259;SDS011;49390;51.380;0.098;2023-07-13T10:16:24;4.53;;;2.47;;
63259;SDS011;49390;51.380;0.098;2023-07-13T10:18:58;5.25;;;2.10;;
63259;SDS011;49390;51.380;0.098;2023-07-13T10:21:35;4.43;;;2.00;;
63259;SDS011;49390;51.380;0.098;2023-07-13T10:24:17;5.03;;;1.95;;
63259;SDS011;49390;51.380;0.098;2023-07-13T10:26:53;3.20;;;1.90;;
63259;SDS011;49390;51.380;0.098;2023-07-13T10:29:26;3.33;;;1.80;;
63259;SDS011;49390;51.380;0.098;2023-07-13T10:34:25;2.65;;;1.98;;
63259;SDS011;49390;51.380;0.098;2023-07-13T10:36:53;3.40;;;1.90;;
63259;SDS011;49390;51.380;0.098;2023-07-13T10:39:22;2.70;;;2.08;;
63259;SDS011;49390;51.380;0.098;2023-07-13T10:42:02;3.28;;;1.95;;
63259;SDS011;49390;51.380;0.098;2023-07-13T10:44:32;3.88;;;1.92;;
63259;SDS011;49390;51.380;0.098;2023-07-13T10:47:02;4.82;;;2.00;;
63259;SDS011;49390;51.380;0.098;2023-07-13T10:49:35;4.85;;;2.05;;
63259;SDS011;49390;51.380;0.098;2023-07-13T10:52:04;3.88;;;1.90;;
63259;SDS011;49390;51.380;0.098;2023-07-13T10:54:33;2.72;;;1.80;;
63259;SDS011;49390;51.380;0.098;2023-07-13T10:57:21;3.85;;;2.20;;
63259;SDS011;49390;51.380;0.098;2023-07-13T11:00:10;4.80;;;2.55;;
63259;SDS011;49390;51.380;0.098;2023-07-13T11:02:42;4.60;;;2.30;;
63259;SDS011;49390;51.380;0.098;2023-07-13T11:05:27;4.55;;;2.28;;
63259;SDS011;49390;51.380;0.098;2023-07-13T11:08:13;4.10;;;2.00;;
63259;SDS011;49390;51.380;0.098;2023-07-13T11:10:55;5.10;;;2.10;;
63259;SDS011;49390;51.380;0.098;2023-07-13T11:21:35;4.10;;;2.20;;
63259;SDS011;49390;51.380;0.098;2023-07-13T11:24:53;6.47;;;2.30;;
63259;SDS011;49390;51.380;0.098;2023-07-13T11:27:34;2.63;;;1.90;;
63259;SDS011;49390;51.380;0.098;2023-07-13T11:38:45;3.03;;;2.00;;
63259;SDS011;49390;51.380;0.098;2023-07-13T11:41:24;4.43;;;2.10;;
63259;SDS011;49390;51.380;0.098;2023-07-13T11:44:19;4.30;;;2.00;;
63259;SDS011;49390;51.380;0.098;2023-07-13T11:46:49;5.88;;;2.10;;
63259;SDS011;49390;51.380;0.098;2023-07-13T11:49:29;4.03;;;2.03;;
63259;SDS011;49390;51.380;0.098;2023-07-13T11:52:00;4.05;;;2.30;;
63259;SDS011;49390;51.380;0.098;2023-07-13T11:54:31;3.30;;;2.20;;
63259;SDS011;49390;51.380;0.098;2023-07-13T12:01:30;4.45;;;2.30;;
63259;SDS011;49390;51.380;0.098;2023-07-13T12:04:03;5.97;;;2.17;;
63259;SDS011;49390;51.380;0.098;2023-07-13T12:06:34;4.53;;;2.50;;
63259;SDS011;49390;51.380;0.098;2023-07-13T12:09:12;5.60;;;2.80;;
63259;SDS011;49390;51.380;0.098;2023-07-13T12:11:43;18.85;;;5.00;;
63259;SDS011;49390;51.380;0.098;2023-07-13T12:14:15;10.00;;;3.22;;
63259;SDS011;49390;51.380;0.098;2023-07-13T12:16:44;4.00;;;2.40;;
63259;SDS011;49390;51.380;0.098;2023-07-13T12:19:21;4.15;;;2.50;;
63259;SDS011;49390;51.380;0.098;2023-07-13T12:21:53;4.68;;;2.80;;
63259;SDS011;49390;51.380;0.098;2023-07-13T12:24:24;5.40;;;2.60;;
63259;SDS011;49390;51.380;0.098;2023-07-13T12:26:54;4.78;;;2.50;;
63259;SDS011;49390;51.380;0.098;2023-07-13T12:29:28;4.40;;;2.40;;
63259;SDS011;49390;51.380;0.098;2023-07-13T12:31:57;4.13;;;2.55;;
63259;SDS011;49390;51.380;0.098;2023-07-13T12:34:26;4.35;;;2.58;;
63259;SDS011;49390;51.380;0.098;2023-07-13T12:37:01;5.13;;;2.50;;
63259;SDS011;49390;51.380;0.098;2023-07-13T12:39:34;5.22;;;2.40;;
63259;SDS011;49390;51.380;0.098;2023-07-13T12:44:45;4.50;;;2.38;;
63259;SDS011;49390;51.380;0.098;2023-07-13T12:47:16;4.18;;;2.50;;
63259;SDS011;49390;51.380;0.098;2023-07-13T12:49:50;3.70;;;2.35;;
63259;SDS011;49390;51.380;0.098;2023-07-13T12:52:28;5.40;;;2.97;;
63259;SDS011;49390;51.380;0.098;2023-07-13T12:57:38;3.67;;;2.50;;
63259;SDS011;49390;51.380;0.098;2023-07-13T13:00:19;4.78;;;2.33;;
63259;SDS011;49390;51.380;0.098;2023-07-13T13:03:05;5.07;;;2.40;;
63259;SDS011;49390;51.380;0.098;2023-07-13T13:06:04;4.43;;;2.50;;
63259;SDS011;49390;51.380;0.098;2023-07-13T13:08:35;6.13;;;2.40;;
63259;SDS011;49390;51.380;0.098;2023-07-13T13:11:04;4.22;;;2.35;;
63259;SDS011;49390;51.380;0.098;2023-07-13T13:13:32;2.78;;;2.00;;
63259;SDS011;49390;51.380;0.098;2023-07-13T13:16:37;4.57;;;2.45;;
63259;SDS011;49390;51.380;0.098;2023-07-13T13:19:01;4.35;;;2.30;;
63259;SDS011;49390;51.380;0.098;2023-07-13T13:21:46;4.50;;;2.30;;
63259;SDS011;49390;51.380;0.098;2023-07-13T13:24:14;4.13;;;2.20;;
63259;SDS011;49390;51.380;0.098;2023-07-13T13:26:44;4.22;;;2.10;;
63259;SDS011;49390;51.380;0.098;2023-07-13T13:29:15;5.13;;;2.15;;
63259;SDS011;49390;51.380;0.098;2023-07-13T13:31:45;3.50;;;2.10;;
63259;SDS011;49390;51.380;0.098;2023-07-13T13:34:14;4.15;;;2.13;;
63259;SDS011;49390;51.380;0.098;2023-07-13T13:36:46;3.40;;;2.03;;
63259;SDS011;49390;51.380;0.098;2023-07-13T13:39:23;6.50;;;2.20;;
63259;SDS011;49390;51.380;0.098;2023-07-13T13:41:52;7.05;;;2.60;;
63259;SDS011;49390;51.380;0.098;2023-07-13T13:44:21;4.57;;;2.35;;
63259;SDS011;49390;51.380;0.098;2023-07-13T13:46:52;6.53;;;2.42;;
63259;SDS011;49390;51.380;0.098;2023-07-13T13:51:52;5.25;;;2.30;;
63259;SDS011;49390;51.380;0.098;2023-07-13T13:54:21;4.25;;;2.17;;
63259;SDS011;49390;51.380;0.098;2023-07-13T13:56:51;7.28;;;2.55;;
63259;SDS011;49390;51.380;0.098;2023-07-13T13:59:20;4.85;;;2.70;;
63259;SDS011;49390;51.380;0.098;2023-07-13T14:01:48;6.57;;;2.70;;
63259;SDS011;49390;51.380;0.098;2023-07-13T14:04:18;5.03;;;2.67;;
63259;SDS011;49390;51.380;0.098;2023-07-13T14:06:48;4.78;;;2.40;;
63259;SDS011;49390;51.380;0.098;2023-07-13T14:09:17;4.18;;;2.33;;
63259;SDS011;49390;51.380;0.098;2023-07-13T14:11:47;6.38;;;2.60;;
63259;SDS011;49390;51.380;0.098;2023-07-13T14:14:19;5.95;;;2.60;;
63259;SDS011;49390;51.380;0.098;2023-07-13T14:16:50;4.43;;;2.60;;
63259;SDS011;49390;51.380;0.098;2023-07-13T14:19:25;6.72;;;2.50;;
63259;SDS011;49390;51.380;0.098;2023-07-13T14:21:55;6.70;;;2.50;;
63259;SDS011;49390;51.380;0.098;2023-07-13T14:24:23;5.65;;;2.45;;
63259;SDS011;49390;51.380;0.098;2023-07-13T14:26:51;4.82;;;2.50;;
63259;SDS011;49390;51.380;0.098;2023-07-13T14:29:20;4.78;;;2.50;;
63259;SDS011;49390;51.380;0.098;2023-07-13T14:34:24;8.07;;;2.95;;
63259;SDS011;49390;51.380;0.098;2023-07-13T14:36:52;5.43;;;2.45;;
63259;SDS011;49390;51.380;0.098;2023-07-13T14:39:21;5.07;;;2.50;;
63259;SDS011;49390;51.380;0.098;2023-07-13T14:41:51;4.55;;;2.47;;
63259;SDS011;49390;51.380;0.098;2023-07-13T14:44:22;4.35;;;2.30;;
63259;SDS011;49390;51.380;0.098;2023-07-13T14:46:57;4.60;;;2.30;;
63259;SDS011;49390;51.380;0.098;2023-07-13T14:52:10;4.05;;;2.35;;
63259;SDS011;49390;51.380;0.098;2023-07-13T14:54:47;5.88;;;2.78;;
63259;SDS011;49390;51.380;0.098;2023-07-13T14:57:16;5.85;;;2.28;;
63259;SDS011;49390;51.380;0.098;2023-07-13T14:59:46;5.13;;;2.47;;
63259;SDS011;49390;51.380;0.098;2023-07-13T15:02:23;4.40;;;2.45;;
63259;SDS011;49390;51.380;0.098;2023-07-13T15:05:00;4.95;;;2.63;;
63259;SDS011;49390;51.380;0.098;2023-07-13T15:07:29;4.57;;;2.40;;
63259;SDS011;49390;51.380;0.098;2023-07-13T15:10:00;5.78;;;2.95;;
63259;SDS011;49390;51.380;0.098;2023-07-13T15:12:29;4.25;;;2.40;;
63259;SDS011;49390;51.380;0.098;2023-07-13T15:14:57;5.80;;;2.55;;
63259;SDS011;49390;51.380;0.098;2023-07-13T15:17:36;5.38;;;2.60;;
63259;SDS011;49390;51.380;0.098;2023-07-13T15:20:17;4.30;;;2.42;;
63259;SDS011;49390;51.380;0.098;2023-07-13T15:22:54;6.05;;;2.75;;
63259;SDS011;49390;51.380;0.098;2023-07-13T15:25:24;6.38;;;2.70;;
63259;SDS011;49390;51.380;0.098;2023-07-13T15:27:54;5.90;;;2.78;;
63259;SDS011;49390;51.380;0.098;2023-07-13T15:30:28;5.50;;;2.78;;
63259;SDS011;49390;51.380;0.098;2023-07-13T15:33:00;5.20;;;2.70;;
63259;SDS011;49390;51.380;0.098;2023-07-13T15:35:37;6.95;;;2.80;;
63259;SDS011;49390;51.380;0.098;2023-07-13T15:38:15;6.00;;;2.80;;
63259;SDS011;49390;51.380;0.098;2023-07-13T15:41:50;5.82;;;2.80;;
63259;SDS011;49390;51.380;0.098;2023-07-13T15:44:28;6.32;;;2.78;;
63259;SDS011;49390;51.380;0.098;2023-07-13T15:46:57;8.73;;;3.28;;
63259;SDS011;49390;51.380;0.098;2023-07-13T15:49:28;5.90;;;3.03;;
63259;SDS011;49390;51.380;0.098;2023-07-13T15:54:17;4.78;;;2.75;;
63259;SDS011;49390;51.380;0.098;2023-07-13T15:56:48;6.25;;;2.90;;
63259;SDS011;49390;51.380;0.098;2023-07-13T15:59:20;6.85;;;3.00;;
63259;SDS011;49390;51.380;0.098;2023-07-13T16:01:48;6.30;;;2.83;;
63259;SDS011;49390;51.380;0.098;2023-07-13T16:04:17;7.13;;;2.80;;
63259;SDS011;49390;51.380;0.098;2023-07-13T16:06:47;5.82;;;2.80;;
63259;SDS011;49390;51.380;0.098;2023-07-13T16:09:17;6.47;;;2.80;;
63259;SDS011;49390;51.380;0.098;2023-07-13T16:11:50;5.82;;;2.50;;
63259;SDS011;49390;51.380;0.098;2023-07-13T16:14:19;6.07;;;2.88;;
63259;SDS011;49390;51.380;0.098;2023-07-13T16:16:52;7.03;;;3.10;;
63259;SDS011;49390;51.380;0.098;2023-07-13T16:19:23;8.18;;;3.10;;
63259;SDS011;49390;51.380;0.098;2023-07-13T16:21:57;7.38;;;2.75;;
63259;SDS011;49390;51.380;0.098;2023-07-13T16:24:27;6.17;;;2.90;;
63259;SDS011;49390;51.380;0.098;2023-07-13T16:26:59;4.47;;;2.65;;